sensor_id;sensor_type;location;lat;lon;timestamp;P1;durP1;ratioP1;P2;durP2;ratioP2
29344;SDS011;16339;48.748;2.222;2023-04-01T00:01:21;23.27;;;2.60;;
29344;SDS011;16339;48.748;2.222;2023-04-01T00:03:53;11.43;;;1.95;;
29344;SDS011;16339;48.748;2.222;2023-04-01T00:06:22;18.77;;;2.78;;
29344;SDS011;16339;48.748;2.222;2023-04-01T00:08:51;11.30;;;1.65;;
29344;SDS011;16339;48.748;2.222;2023-04-01T00:11:20;19.90;;;2.05;;
29344;SDS011;16339;48.748;2.222;2023-04-01T00:13:49;14.52;;;2.47;;
29344;SDS011;16339;48.748;2.222;2023-04-01T00:16:17;15.45;;;1.92;;
29344;SDS011;16339;48.748;2.222;2023-04-01T00:18:49;9.13;;;1.60;;
29344;SDS011;16339;48.748;2.222;2023-04-01T00:21:19;17.48;;;2.47;;
29344;SDS011;16339;48.748;2.222;2023-04-01T00:23:49;11.43;;;1.80;;
29344;SDS011;16339;48.748;2.222;2023-04-01T00:26:19;11.93;;;2.30;;
29344;SDS011;16339;48.748;2.222;2023-04-01T00:28:48;7.85;;;2.00;;
29344;SDS011;16339;48.748;2.222;2023-04-01T00:31:18;9.40;;;1.95;;
29344;SDS011;16339;48.748;2.222;2023-04-01T00:33:49;9.57;;;2.10;;
29344;SDS011;16339;48.748;2.222;2023-04-01T00:36:20;12.10;;;1.70;;
29344;SDS011;16339;48.748;2.222;2023-04-01T00:38:50;15.55;;;1.90;;
29344;SDS011;16339;48.748;2.222;2023-04-01T00:41:19;11.05;;;2.20;;
29344;SDS011;16339;48.748;2.222;2023-04-01T00:43:49;12.80;;;2.40;;
29344;SDS011;16339;48.748;2.222;2023-04-01T00:46:19;11.00;;;2.17;;
29344;SDS011;16339;48.748;2.222;2023-04-01T00:48:51;17.90;;;2.20;;
29344;SDS011;16339;48.748;2.222;2023-04-01T00:51:23;18.15;;;2.85;;
29344;SDS011;16339;48.748;2.222;2023-04-01T00:53:56;11.88;;;2.42;;
29344;SDS011;16339;48.748;2.222;2023-04-01T00:56:30;17.70;;;2.60;;
29344;SDS011;16339;48.748;2.222;2023-04-01T00:59:03;16.85;;;2.65;;
29344;SDS011;16339;48.748;2.222;2023-04-01T01:01:35;21.20;;;3.42;;
29344;SDS011;16339;48.748;2.222;2023-04-01T01:04:19;22.20;;;3.65;;
29344;SDS011;16339;48.748;2.222;2023-04-01T01:06:51;22.83;;;2.40;;
29344;SDS011;16339;48.748;2.222;2023-04-01T01:09:30;15.35;;;2.10;;
29344;SDS011;16339;48.748;2.222;2023-04-01T01:12:06;14.85;;;2.03;;
29344;SDS011;16339;48.748;2.222;2023-04-01T01:14:43;12.15;;;2.15;;
29344;SDS011;16339;48.748;2.222;2023-04-01T01:17:23;6.03;;;1.60;;
29344;SDS011;16339;48.748;2.222;2023-04-01T01:23:06;7.88;;;1.52;;
29344;SDS011;16339;48.748;2.222;2023-04-01T01:25:59;7.72;;;1.75;;
29344;SDS011;16339;48.748;2.222;2023-04-01T01:29:07;9.98;;;1.67;;
29344;SDS011;16339;48.748;2.222;2023-04-01T01:31:47;17.02;;;2.33;;
29344;SDS011;16339;48.748;2.222;2023-04-01T01:34:26;14.20;;;1.65;;
29344;SDS011;16339;48.748;2.222;2023-04-01T01:37:05;8.77;;;1.92;;
29344;SDS011;16339;48.748;2.222;2023-04-01T01:39:37;16.23;;;1.90;;
29344;SDS011;16339;48.748;2.222;2023-04-01T01:42:10;15.43;;;1.63;;
29344;SDS011;16339;48.748;2.222;2023-04-01T01:44:42;12.35;;;1.83;;
29344;SDS011;16339;48.748;2.222;2023-04-01T01:47:14;8.60;;;1.48;;
29344;SDS011;16339;48.748;2.222;2023-04-01T01:49:43;11.52;;;1.92;;
29344;SDS011;16339;48.748;2.222;2023-04-01T01:52:16;6.82;;;1.33;;
29344;SDS011;16339;48.748;2.222;2023-04-01T01:54:48;7.82;;;1.55;;
29344;SDS011;16339;48.748;2.222;2023-04-01T01:57:18;6.50;;;1.42;;
29344;SDS011;16339;48.748;2.222;2023-04-01T01:59:48;11.18;;;1.70;;
29344;SDS011;16339;48.748;2.222;2023-04-01T02:02:20;10.70;;;1.50;;
29344;SDS011;16339;48.748;2.222;2023-04-01T02:04:50;7.60;;;1.45;;
29344;SDS011;16339;48.748;2.222;2023-04-01T02:07:23;7.68;;;1.55;;
29344;SDS011;16339;48.748;2.222;2023-04-01T02:09:55;12.10;;;1.67;;
29344;SDS011;16339;48.748;2.222;2023-04-01T02:12:24;14.85;;;1.90;;
29344;SDS011;16339;48.748;2.222;2023-04-01T02:14:54;13.55;;;1.88;;
29344;SDS011;16339;48.748;2.222;2023-04-01T02:17:26;12.48;;;1.63;;
29344;SDS011;16339;48.748;2.222;2023-04-01T02:19:57;14.25;;;1.70;;
29344;SDS011;16339;48.748;2.222;2023-04-01T02:22:33;11.95;;;1.73;;
29344;SDS011;16339;48.748;2.222;2023-04-01T02:25:04;18.80;;;1.80;;
29344;SDS011;16339;48.748;2.222;2023-04-01T02:27:35;9.55;;;1.63;;
29344;SDS011;16339;48.748;2.222;2023-04-01T02:30:06;15.63;;;2.45;;
29344;SDS011;16339;48.748;2.222;2023-04-01T02:32:36;14.98;;;1.55;;
29344;SDS011;16339;48.748;2.222;2023-04-01T02:35:07;13.18;;;1.75;;
29344;SDS011;16339;48.748;2.222;2023-04-01T02:37:40;9.10;;;1.33;;
29344;SDS011;16339;48.748;2.222;2023-04-01T02:40:12;12.15;;;1.65;;
29344;SDS011;16339;48.748;2.222;2023-04-01T02:42:42;8.80;;;1.50;;
29344;SDS011;16339;48.748;2.222;2023-04-01T02:45:11;9.57;;;1.10;;
29344;SDS011;16339;48.748;2.222;2023-04-01T02:47:41;8.85;;;1.23;;
29344;SDS011;16339;48.748;2.222;2023-04-01T02:50:09;12.63;;;1.80;;
29344;SDS011;16339;48.748;2.222;2023-04-01T02:52:41;10.32;;;1.70;;
29344;SDS011;16339;48.748;2.222;2023-04-01T02:55:10;8.40;;;1.83;;
29344;SDS011;16339;48.748;2.222;2023-04-01T02:57:39;8.07;;;1.63;;
29344;SDS011;16339;48.748;2.222;2023-04-01T03:00:08;9.18;;;1.40;;
29344;SDS011;16339;48.748;2.222;2023-04-01T03:02:37;6.00;;;1.38;;
29344;SDS011;16339;48.748;2.222;2023-04-01T03:05:07;13.90;;;1.60;;
29344;SDS011;16339;48.748;2.222;2023-04-01T03:07:36;9.40;;;1.38;;
29344;SDS011;16339;48.748;2.222;2023-04-01T03:10:08;8.45;;;1.55;;
29344;SDS011;16339;48.748;2.222;2023-04-01T03:12:37;14.32;;;1.65;;
29344;SDS011;16339;48.748;2.222;2023-04-01T03:15:06;11.68;;;1.42;;
29344;SDS011;16339;48.748;2.222;2023-04-01T03:17:38;9.70;;;1.55;;
29344;SDS011;16339;48.748;2.222;2023-04-01T03:20:08;5.10;;;1.23;;
29344;SDS011;16339;48.748;2.222;2023-04-01T03:25:10;8.35;;;1.10;;
29344;SDS011;16339;48.748;2.222;2023-04-01T03:27:39;11.30;;;1.30;;
29344;SDS011;16339;48.748;2.222;2023-04-01T03:30:08;9.23;;;1.42;;
29344;SDS011;16339;48.748;2.222;2023-04-01T03:32:37;7.63;;;1.27;;
29344;SDS011;16339;48.748;2.222;2023-04-01T03:35:06;13.25;;;1.98;;
29344;SDS011;16339;48.748;2.222;2023-04-01T03:37:35;9.32;;;1.52;;
29344;SDS011;16339;48.748;2.222;2023-04-01T03:40:05;10.90;;;1.75;;
29344;SDS011;16339;48.748;2.222;2023-04-01T03:42:37;6.78;;;1.38;;
29344;SDS011;16339;48.748;2.222;2023-04-01T03:45:06;13.10;;;1.50;;
29344;SDS011;16339;48.748;2.222;2023-04-01T03:47:35;9.02;;;1.30;;
29344;SDS011;16339;48.748;2.222;2023-04-01T03:50:04;6.43;;;1.10;;
29344;SDS011;16339;48.748;2.222;2023-04-01T03:52:35;11.27;;;1.40;;
29344;SDS011;16339;48.748;2.222;2023-04-01T03:55:04;13.20;;;1.63;;
29344;SDS011;16339;48.748;2.222;2023-04-01T03:57:33;13.07;;;1.90;;
29344;SDS011;16339;48.748;2.222;2023-04-01T04:00:05;10.40;;;1.70;;
29344;SDS011;16339;48.748;2.222;2023-04-01T04:02:35;12.13;;;1.38;;
29344;SDS011;16339;48.748;2.222;2023-04-01T04:05:04;10.02;;;1.80;;
29344;SDS011;16339;48.748;2.222;2023-04-01T04:07:33;14.75;;;2.17;;
29344;SDS011;16339;48.748;2.222;2023-04-01T04:10:02;9.57;;;1.50;;
29344;SDS011;16339;48.748;2.222;2023-04-01T04:12:31;15.52;;;2.20;;
29344;SDS011;16339;48.748;2.222;2023-04-01T04:15:00;13.23;;;1.90;;
29344;SDS011;16339;48.748;2.222;2023-04-01T04:17:32;13.82;;;2.03;;
29344;SDS011;16339;48.748;2.222;2023-04-01T04:20:01;15.70;;;1.88;;
29344;SDS011;16339;48.748;2.222;2023-04-01T04:22:30;8.65;;;1.60;;
29344;SDS011;16339;48.748;2.222;2023-04-01T04:24:59;13.88;;;1.83;;
29344;SDS011;16339;48.748;2.222;2023-04-01T04:27:27;8.57;;;1.52;;
29344;SDS011;16339;48.748;2.222;2023-04-01T04:29:56;15.82;;;2.08;;
29344;SDS011;16339;48.748;2.222;2023-04-01T04:32:27;10.13;;;1.48;;
29344;SDS011;16339;48.748;2.222;2023-04-01T04:34:56;14.20;;;1.67;;
29344;SDS011;16339;48.748;2.222;2023-04-01T04:37:25;11.20;;;1.52;;
29344;SDS011;16339;48.748;2.222;2023-04-01T04:39:54;19.15;;;1.50;;
29344;SDS011;16339;48.748;2.222;2023-04-01T04:42:22;12.55;;;1.73;;
29344;SDS011;16339;48.748;2.222;2023-04-01T04:44:51;13.50;;;2.08;;
29344;SDS011;16339;48.748;2.222;2023-04-01T04:47:20;9.60;;;1.50;;
29344;SDS011;16339;48.748;2.222;2023-04-01T04:49:51;9.95;;;1.52;;
29344;SDS011;16339;48.748;2.222;2023-04-01T04:52:20;10.10;;;1.73;;
29344;SDS011;16339;48.748;2.222;2023-04-01T04:54:49;8.90;;;1.65;;
29344;SDS011;16339;48.748;2.222;2023-04-01T04:57:17;10.75;;;1.48;;
29344;SDS011;16339;48.748;2.222;2023-04-01T04:59:46;8.27;;;1.67;;
29344;SDS011;16339;48.748;2.222;2023-04-01T05:02:15;6.40;;;0.88;;
29344;SDS011;16339;48.748;2.222;2023-04-01T05:04:43;7.93;;;1.42;;
29344;SDS011;16339;48.748;2.222;2023-04-01T05:07:15;10.43;;;1.40;;
29344;SDS011;16339;48.748;2.222;2023-04-01T05:09:43;15.10;;;1.45;;
29344;SDS011;16339;48.748;2.222;2023-04-01T05:12:12;9.25;;;1.45;;
29344;SDS011;16339;48.748;2.222;2023-04-01T05:14:41;5.93;;;0.98;;
29344;SDS011;16339;48.748;2.222;2023-04-01T05:17:10;7.97;;;1.38;;
29344;SDS011;16339;48.748;2.222;2023-04-01T05:19:39;10.88;;;1.30;;
29344;SDS011;16339;48.748;2.222;2023-04-01T05:22:08;7.55;;;1.10;;
29344;SDS011;16339;48.748;2.222;2023-04-01T05:24:39;7.88;;;1.08;;
29344;SDS011;16339;48.748;2.222;2023-04-01T05:27:08;9.02;;;1.40;;
29344;SDS011;16339;48.748;2.222;2023-04-01T05:29:37;11.88;;;1.13;;
29344;SDS011;16339;48.748;2.222;2023-04-01T05:32:07;10.63;;;1.20;;
29344;SDS011;16339;48.748;2.222;2023-04-01T05:34:35;8.35;;;1.25;;
29344;SDS011;16339;48.748;2.222;2023-04-01T05:37:04;5.85;;;1.23;;
29344;SDS011;16339;48.748;2.222;2023-04-01T05:39:35;11.43;;;1.60;;
29344;SDS011;16339;48.748;2.222;2023-04-01T05:42:07;16.33;;;2.33;;
29344;SDS011;16339;48.748;2.222;2023-04-01T05:44:36;8.43;;;1.40;;
29344;SDS011;16339;48.748;2.222;2023-04-01T05:47:05;10.15;;;1.50;;
29344;SDS011;16339;48.748;2.222;2023-04-01T05:49:35;13.75;;;1.55;;
29344;SDS011;16339;48.748;2.222;2023-04-01T05:52:03;11.88;;;1.45;;
29344;SDS011;16339;48.748;2.222;2023-04-01T05:54:32;10.45;;;1.70;;
29344;SDS011;16339;48.748;2.222;2023-04-01T05:57:04;12.63;;;1.70;;
29344;SDS011;16339;48.748;2.222;2023-04-01T05:59:32;8.15;;;1.65;;
29344;SDS011;16339;48.748;2.222;2023-04-01T06:02:01;11.30;;;1.42;;
29344;SDS011;16339;48.748;2.222;2023-04-01T06:04:32;9.68;;;1.50;;
29344;SDS011;16339;48.748;2.222;2023-04-01T06:07:08;10.45;;;1.58;;
29344;SDS011;16339;48.748;2.222;2023-04-01T06:09:40;8.88;;;1.25;;
29344;SDS011;16339;48.748;2.222;2023-04-01T06:12:24;12.30;;;1.60;;
29344;SDS011;16339;48.748;2.222;2023-04-01T06:15:16;8.77;;;1.48;;
29344;SDS011;16339;48.748;2.222;2023-04-01T06:18:00;5.22;;;1.13;;
29344;SDS011;16339;48.748;2.222;2023-04-01T06:20:43;8.15;;;1.15;;
29344;SDS011;16339;48.748;2.222;2023-04-01T06:26:17;9.85;;;1.05;;
29344;SDS011;16339;48.748;2.222;2023-04-01T06:34:51;8.63;;;1.65;;
29344;SDS011;16339;48.748;2.222;2023-04-01T06:40:40;10.50;;;1.92;;
29344;SDS011;16339;48.748;2.222;2023-04-01T06:43:21;9.27;;;1.40;;
29344;SDS011;16339;48.748;2.222;2023-04-01T06:46:05;8.30;;;1.45;;
29344;SDS011;16339;48.748;2.222;2023-04-01T06:48:45;9.38;;;1.38;;
29344;SDS011;16339;48.748;2.222;2023-04-01T06:51:28;10.35;;;1.70;;
29344;SDS011;16339;48.748;2.222;2023-04-01T06:54:09;12.90;;;1.40;;
29344;SDS011;16339;48.748;2.222;2023-04-01T06:56:40;11.15;;;1.75;;
29344;SDS011;16339;48.748;2.222;2023-04-01T06:59:12;6.80;;;1.58;;
29344;SDS011;16339;48.748;2.222;2023-04-01T07:01:47;7.85;;;1.55;;
29344;SDS011;16339;48.748;2.222;2023-04-01T07:04:20;11.57;;;1.25;;
29344;SDS011;16339;48.748;2.222;2023-04-01T07:06:53;11.43;;;1.33;;
29344;SDS011;16339;48.748;2.222;2023-04-01T07:09:26;6.22;;;1.02;;
29344;SDS011;16339;48.748;2.222;2023-04-01T07:12:04;6.03;;;1.30;;
29344;SDS011;16339;48.748;2.222;2023-04-01T07:14:41;10.43;;;1.20;;
29344;SDS011;16339;48.748;2.222;2023-04-01T07:17:14;7.33;;;1.50;;
29344;SDS011;16339;48.748;2.222;2023-04-01T07:19:46;7.50;;;1.45;;
29344;SDS011;16339;48.748;2.222;2023-04-01T07:22:22;6.45;;;1.20;;
29344;SDS011;16339;48.748;2.222;2023-04-01T07:24:59;5.75;;;1.25;;
29344;SDS011;16339;48.748;2.222;2023-04-01T07:27:31;5.47;;;1.50;;
29344;SDS011;16339;48.748;2.222;2023-04-01T07:30:00;9.15;;;1.77;;
29344;SDS011;16339;48.748;2.222;2023-04-01T07:32:34;7.72;;;1.70;;
29344;SDS011;16339;48.748;2.222;2023-04-01T07:35:13;5.18;;;1.27;;
29344;SDS011;16339;48.748;2.222;2023-04-01T07:37:53;7.95;;;1.10;;
29344;SDS011;16339;48.748;2.222;2023-04-01T07:40:39;4.00;;;0.90;;
29344;SDS011;16339;48.748;2.222;2023-04-01T07:43:28;7.50;;;1.42;;
29344;SDS011;16339;48.748;2.222;2023-04-01T07:46:08;10.10;;;1.15;;
29344;SDS011;16339;48.748;2.222;2023-04-01T07:48:50;4.45;;;1.05;;
29344;SDS011;16339;48.748;2.222;2023-04-01T07:51:26;11.82;;;1.00;;
29344;SDS011;16339;48.748;2.222;2023-04-01T07:54:01;5.85;;;1.25;;
29344;SDS011;16339;48.748;2.222;2023-04-01T07:56:37;9.18;;;1.40;;
29344;SDS011;16339;48.748;2.222;2023-04-01T07:59:11;6.35;;;1.15;;
29344;SDS011;16339;48.748;2.222;2023-04-01T08:01:46;9.35;;;1.70;;
29344;SDS011;16339;48.748;2.222;2023-04-01T08:04:30;5.85;;;1.23;;
29344;SDS011;16339;48.748;2.222;2023-04-01T08:07:08;4.97;;;1.08;;
29344;SDS011;16339;48.748;2.222;2023-04-01T08:09:43;5.63;;;0.90;;
29344;SDS011;16339;48.748;2.222;2023-04-01T08:12:21;9.05;;;1.27;;
29344;SDS011;16339;48.748;2.222;2023-04-01T08:15:01;4.68;;;1.25;;
29344;SDS011;16339;48.748;2.222;2023-04-01T08:17:39;6.35;;;1.05;;
29344;SDS011;16339;48.748;2.222;2023-04-01T08:20:23;7.05;;;1.15;;
29344;SDS011;16339;48.748;2.222;2023-04-01T08:22:57;10.27;;;1.20;;
29344;SDS011;16339;48.748;2.222;2023-04-01T08:25:30;6.35;;;0.98;;
29344;SDS011;16339;48.748;2.222;2023-04-01T08:28:08;4.25;;;0.90;;
29344;SDS011;16339;48.748;2.222;2023-04-01T08:30:41;11.93;;;1.25;;
29344;SDS011;16339;48.748;2.222;2023-04-01T08:33:15;5.90;;;1.20;;
29344;SDS011;16339;48.748;2.222;2023-04-01T08:35:51;7.95;;;1.38;;
29344;SDS011;16339;48.748;2.222;2023-04-01T08:38:26;8.75;;;1.63;;
29344;SDS011;16339;48.748;2.222;2023-04-01T08:41:06;11.43;;;1.15;;
29344;SDS011;16339;48.748;2.222;2023-04-01T08:43:48;8.07;;;1.30;;
29344;SDS011;16339;48.748;2.222;2023-04-01T08:49:32;7.55;;;1.38;;
29344;SDS011;16339;48.748;2.222;2023-04-01T08:52:32;13.75;;;1.75;;
29344;SDS011;16339;48.748;2.222;2023-04-01T08:58:08;12.27;;;1.60;;
29344;SDS011;16339;48.748;2.222;2023-04-01T09:01:01;7.82;;;1.63;;
29344;SDS011;16339;48.748;2.222;2023-04-01T09:06:49;8.30;;;1.70;;
29344;SDS011;16339;48.748;2.222;2023-04-01T09:09:39;16.48;;;1.60;;
29344;SDS011;16339;48.748;2.222;2023-04-01T09:12:25;9.30;;;1.27;;
29344;SDS011;16339;48.748;2.222;2023-04-01T09:15:17;7.25;;;2.15;;
29344;SDS011;16339;48.748;2.222;2023-04-01T09:20:45;14.65;;;1.67;;
29344;SDS011;16339;48.748;2.222;2023-04-01T09:23:36;8.02;;;1.58;;
29344;SDS011;16339;48.748;2.222;2023-04-01T09:26:28;13.25;;;1.90;;
29344;SDS011;16339;48.748;2.222;2023-04-01T09:29:19;11.48;;;1.92;;
29344;SDS011;16339;48.748;2.222;2023-04-01T09:35:00;17.90;;;1.67;;
29344;SDS011;16339;48.748;2.222;2023-04-01T09:37:36;7.10;;;1.35;;
29344;SDS011;16339;48.748;2.222;2023-04-01T09:40:21;14.68;;;1.90;;
29344;SDS011;16339;48.748;2.222;2023-04-01T09:46:09;6.97;;;1.30;;
29344;SDS011;16339;48.748;2.222;2023-04-01T09:48:51;5.38;;;1.30;;
29344;SDS011;16339;48.748;2.222;2023-04-01T09:51:49;11.30;;;1.10;;
29344;SDS011;16339;48.748;2.222;2023-04-01T09:54:31;11.75;;;1.63;;
29344;SDS011;16339;48.748;2.222;2023-04-01T09:57:22;9.85;;;1.30;;
29344;SDS011;16339;48.748;2.222;2023-04-01T10:03:16;6.80;;;1.20;;
29344;SDS011;16339;48.748;2.222;2023-04-01T10:06:27;8.68;;;1.40;;
29344;SDS011;16339;48.748;2.222;2023-04-01T10:18:29;6.78;;;1.08;;
29344;SDS011;16339;48.748;2.222;2023-04-01T10:21:22;9.82;;;1.55;;
29344;SDS011;16339;48.748;2.222;2023-04-01T10:24:17;7.65;;;1.15;;
29344;SDS011;16339;48.748;2.222;2023-04-01T10:27:10;5.22;;;0.95;;
29344;SDS011;16339;48.748;2.222;2023-04-01T10:29:53;3.72;;;0.93;;
29344;SDS011;16339;48.748;2.222;2023-04-01T10:32:55;2.47;;;0.52;;
29344;SDS011;16339;48.748;2.222;2023-04-01T10:35:53;7.72;;;1.08;;
29344;SDS011;16339;48.748;2.222;2023-04-01T10:38:55;4.15;;;0.80;;
29344;SDS011;16339;48.748;2.222;2023-04-01T10:41:57;11.52;;;1.10;;
29344;SDS011;16339;48.748;2.222;2023-04-01T10:44:53;4.53;;;0.90;;
29344;SDS011;16339;48.748;2.222;2023-04-01T10:56:42;4.55;;;0.95;;
29344;SDS011;16339;48.748;2.222;2023-04-01T10:59:16;5.57;;;1.00;;
29344;SDS011;16339;48.748;2.222;2023-04-01T11:02:12;4.15;;;0.88;;
29344;SDS011;16339;48.748;2.222;2023-04-01T11:11:23;6.25;;;1.15;;
29344;SDS011;16339;48.748;2.222;2023-04-01T11:14:27;7.05;;;1.10;;
29344;SDS011;16339;48.748;2.222;2023-04-01T11:20:21;4.47;;;1.05;;
29344;SDS011;16339;48.748;2.222;2023-04-01T11:23:06;7.03;;;1.10;;
29344;SDS011;16339;48.748;2.222;2023-04-01T11:26:02;7.20;;;1.17;;
29344;SDS011;16339;48.748;2.222;2023-04-01T11:28:42;6.43;;;1.25;;
29344;SDS011;16339;48.748;2.222;2023-04-01T11:31:41;7.93;;;1.27;;
29344;SDS011;16339;48.748;2.222;2023-04-01T11:34:26;7.13;;;1.45;;
29344;SDS011;16339;48.748;2.222;2023-04-01T11:37:16;6.40;;;1.02;;
29344;SDS011;16339;48.748;2.222;2023-04-01T11:40:02;11.63;;;1.42;;
29344;SDS011;16339;48.748;2.222;2023-04-01T11:42:41;6.18;;;1.08;;
29344;SDS011;16339;48.748;2.222;2023-04-01T11:45:23;10.35;;;1.35;;
29344;SDS011;16339;48.748;2.222;2023-04-01T11:50:59;6.03;;;1.17;;
29344;SDS011;16339;48.748;2.222;2023-04-01T11:53:44;9.10;;;1.37;;
29344;SDS011;16339;48.748;2.222;2023-04-01T11:56:26;5.63;;;1.08;;
29344;SDS011;16339;48.748;2.222;2023-04-01T11:59:13;10.15;;;1.33;;
29344;SDS011;16339;48.748;2.222;2023-04-01T12:02:11;3.00;;;0.77;;
29344;SDS011;16339;48.748;2.222;2023-04-01T12:04:49;8.10;;;1.30;;
29344;SDS011;16339;48.748;2.222;2023-04-01T12:07:44;9.40;;;1.58;;
29344;SDS011;16339;48.748;2.222;2023-04-01T12:10:26;3.30;;;0.93;;
29344;SDS011;16339;48.748;2.222;2023-04-01T12:13:04;5.03;;;0.90;;
29344;SDS011;16339;48.748;2.222;2023-04-01T12:15:50;5.53;;;0.80;;
29344;SDS011;16339;48.748;2.222;2023-04-01T12:18:32;9.15;;;1.10;;
29344;SDS011;16339;48.748;2.222;2023-04-01T12:21:09;7.68;;;0.90;;
29344;SDS011;16339;48.748;2.222;2023-04-01T12:23:59;7.22;;;1.10;;
29344;SDS011;16339;48.748;2.222;2023-04-01T12:26:59;7.35;;;1.80;;
29344;SDS011;16339;48.748;2.222;2023-04-01T12:29:49;5.88;;;1.25;;
29344;SDS011;16339;48.748;2.222;2023-04-01T12:32:39;5.78;;;1.17;;
29344;SDS011;16339;48.748;2.222;2023-04-01T12:35:18;6.47;;;1.35;;
29344;SDS011;16339;48.748;2.222;2023-04-01T12:37:55;8.35;;;1.13;;
29344;SDS011;16339;48.748;2.222;2023-04-01T12:40:41;8.25;;;1.20;;
29344;SDS011;16339;48.748;2.222;2023-04-01T12:46:42;9.70;;;0.90;;
29344;SDS011;16339;48.748;2.222;2023-04-01T12:49:32;5.03;;;1.20;;
29344;SDS011;16339;48.748;2.222;2023-04-01T12:52:15;5.25;;;0.90;;
29344;SDS011;16339;48.748;2.222;2023-04-01T12:57:59;7.28;;;1.17;;
29344;SDS011;16339;48.748;2.222;2023-04-01T13:00:53;6.38;;;0.90;;
29344;SDS011;16339;48.748;2.222;2023-04-01T13:03:44;7.43;;;1.05;;
29344;SDS011;16339;48.748;2.222;2023-04-01T13:06:30;4.40;;;1.20;;
29344;SDS011;16339;48.748;2.222;2023-04-01T13:09:18;5.53;;;1.30;;
29344;SDS011;16339;48.748;2.222;2023-04-01T13:12:01;5.15;;;0.95;;
29344;SDS011;16339;48.748;2.222;2023-04-01T13:17:41;4.53;;;1.20;;
29344;SDS011;16339;48.748;2.222;2023-04-01T13:20:20;6.78;;;1.20;;
29344;SDS011;16339;48.748;2.222;2023-04-01T13:23:00;5.82;;;1.30;;
29344;SDS011;16339;48.748;2.222;2023-04-01T13:25:43;6.05;;;1.33;;
29344;SDS011;16339;48.748;2.222;2023-04-01T13:28:20;5.10;;;1.67;;
29344;SDS011;16339;48.748;2.222;2023-04-01T13:30:54;5.28;;;1.08;;
29344;SDS011;16339;48.748;2.222;2023-04-01T13:33:31;9.45;;;1.20;;
29344;SDS011;16339;48.748;2.222;2023-04-01T13:36:08;4.15;;;1.52;;
29344;SDS011;16339;48.748;2.222;2023-04-01T13:41:42;4.45;;;0.93;;
29344;SDS011;16339;48.748;2.222;2023-04-01T13:44:27;3.17;;;0.80;;
29344;SDS011;16339;48.748;2.222;2023-04-01T13:47:12;3.67;;;0.70;;
29344;SDS011;16339;48.748;2.222;2023-04-01T13:50:17;7.47;;;0.95;;
29344;SDS011;16339;48.748;2.222;2023-04-01T13:55:54;1.20;;;0.50;;
29344;SDS011;16339;48.748;2.222;2023-04-01T13:58:42;5.65;;;0.90;;
29344;SDS011;16339;48.748;2.222;2023-04-01T14:01:25;5.22;;;0.93;;
29344;SDS011;16339;48.748;2.222;2023-04-01T14:04:12;5.45;;;0.90;;
29344;SDS011;16339;48.748;2.222;2023-04-01T14:07:01;7.20;;;0.95;;
29344;SDS011;16339;48.748;2.222;2023-04-01T14:09:49;3.63;;;0.80;;
29344;SDS011;16339;48.748;2.222;2023-04-01T14:12:30;7.72;;;0.73;;
29344;SDS011;16339;48.748;2.222;2023-04-01T14:15:14;6.65;;;0.88;;
29344;SDS011;16339;48.748;2.222;2023-04-01T14:20:59;4.50;;;0.70;;
29344;SDS011;16339;48.748;2.222;2023-04-01T14:26:57;5.85;;;1.00;;
29344;SDS011;16339;48.748;2.222;2023-04-01T14:29:48;3.38;;;0.73;;
29344;SDS011;16339;48.748;2.222;2023-04-01T14:32:31;4.47;;;1.20;;
29344;SDS011;16339;48.748;2.222;2023-04-01T14:35:15;5.93;;;1.30;;
29344;SDS011;16339;48.748;2.222;2023-04-01T14:37:58;5.20;;;1.33;;
29344;SDS011;16339;48.748;2.222;2023-04-01T14:41:00;4.45;;;0.77;;
29344;SDS011;16339;48.748;2.222;2023-04-01T14:44:00;5.57;;;0.93;;
29344;SDS011;16339;48.748;2.222;2023-04-01T14:47:04;5.68;;;1.10;;
29344;SDS011;16339;48.748;2.222;2023-04-01T14:49:47;7.47;;;1.10;;
29344;SDS011;16339;48.748;2.222;2023-04-01T14:52:22;5.32;;;0.80;;
29344;SDS011;16339;48.748;2.222;2023-04-01T14:54:55;5.78;;;1.17;;
29344;SDS011;16339;48.748;2.222;2023-04-01T14:57:27;6.20;;;1.02;;
29344;SDS011;16339;48.748;2.222;2023-04-01T14:59:59;3.13;;;0.65;;
29344;SDS011;16339;48.748;2.222;2023-04-01T15:02:38;6.72;;;0.88;;
29344;SDS011;16339;48.748;2.222;2023-04-01T15:05:23;3.13;;;0.77;;
29344;SDS011;16339;48.748;2.222;2023-04-01T15:08:00;9.00;;;1.65;;
29344;SDS011;16339;48.748;2.222;2023-04-01T15:13:49;3.15;;;0.80;;
29344;SDS011;16339;48.748;2.222;2023-04-01T15:16:34;3.00;;;0.90;;
29344;SDS011;16339;48.748;2.222;2023-04-01T15:19:14;3.70;;;0.90;;
29344;SDS011;16339;48.748;2.222;2023-04-01T15:21:54;6.78;;;1.10;;
29344;SDS011;16339;48.748;2.222;2023-04-01T15:24:39;6.80;;;1.30;;
29344;SDS011;16339;48.748;2.222;2023-04-01T15:27:16;8.90;;;1.33;;
29344;SDS011;16339;48.748;2.222;2023-04-01T15:30:14;9.88;;;1.02;;
29344;SDS011;16339;48.748;2.222;2023-04-01T15:35:43;5.28;;;1.17;;
29344;SDS011;16339;48.748;2.222;2023-04-01T15:38:21;4.60;;;1.27;;
29344;SDS011;16339;48.748;2.222;2023-04-01T15:41:02;3.90;;;1.10;;
29344;SDS011;16339;48.748;2.222;2023-04-01T15:43:40;5.45;;;0.88;;
29344;SDS011;16339;48.748;2.222;2023-04-01T15:49:05;8.40;;;1.20;;
29344;SDS011;16339;48.748;2.222;2023-04-01T15:51:54;5.25;;;1.20;;
29344;SDS011;16339;48.748;2.222;2023-04-01T15:57:36;4.63;;;1.02;;
29344;SDS011;16339;48.748;2.222;2023-04-01T16:00:19;6.50;;;1.40;;
29344;SDS011;16339;48.748;2.222;2023-04-01T16:03:10;4.70;;;1.08;;
29344;SDS011;16339;48.748;2.222;2023-04-01T16:05:51;2.92;;;0.82;;
29344;SDS011;16339;48.748;2.222;2023-04-01T16:08:37;2.85;;;0.75;;
29344;SDS011;16339;48.748;2.222;2023-04-01T16:11:27;5.50;;;0.80;;
29344;SDS011;16339;48.748;2.222;2023-04-01T16:14:14;1.48;;;0.57;;
29344;SDS011;16339;48.748;2.222;2023-04-01T16:16:56;1.08;;;0.60;;
29344;SDS011;16339;48.748;2.222;2023-04-01T16:19:35;0.47;;;0.43;;
29344;SDS011;16339;48.748;2.222;2023-04-01T16:22:18;0.43;;;0.38;;
29344;SDS011;16339;48.748;2.222;2023-04-01T16:24:51;0.98;;;0.47;;
29344;SDS011;16339;48.748;2.222;2023-04-01T16:27:25;2.78;;;0.60;;
29344;SDS011;16339;48.748;2.222;2023-04-01T16:30:03;4.35;;;0.68;;
29344;SDS011;16339;48.748;2.222;2023-04-01T16:32:54;1.27;;;0.77;;
29344;SDS011;16339;48.748;2.222;2023-04-01T16:35:30;1.45;;;0.65;;
29344;SDS011;16339;48.748;2.222;2023-04-01T16:38:09;2.45;;;0.80;;
29344;SDS011;16339;48.748;2.222;2023-04-01T16:40:44;0.90;;;0.57;;
29344;SDS011;16339;48.748;2.222;2023-04-01T16:43:20;2.38;;;0.85;;
29344;SDS011;16339;48.748;2.222;2023-04-01T16:51:59;3.13;;;0.90;;
29344;SDS011;16339;48.748;2.222;2023-04-01T16:54:43;4.78;;;1.10;;
29344;SDS011;16339;48.748;2.222;2023-04-01T16:57:17;2.10;;;0.65;;
29344;SDS011;16339;48.748;2.222;2023-04-01T16:59:54;2.65;;;0.95;;
29344;SDS011;16339;48.748;2.222;2023-04-01T17:02:30;4.18;;;1.05;;
29344;SDS011;16339;48.748;2.222;2023-04-01T17:05:03;3.95;;;1.05;;
29344;SDS011;16339;48.748;2.222;2023-04-01T17:07:40;4.35;;;1.55;;
29344;SDS011;16339;48.748;2.222;2023-04-01T17:13:28;3.05;;;1.15;;
29344;SDS011;16339;48.748;2.222;2023-04-01T17:16:16;6.65;;;1.33;;
29344;SDS011;16339;48.748;2.222;2023-04-01T17:18:59;4.15;;;1.17;;
29344;SDS011;16339;48.748;2.222;2023-04-01T17:21:44;9.88;;;1.00;;
29344;SDS011;16339;48.748;2.222;2023-04-01T17:24:24;2.97;;;1.13;;
29344;SDS011;16339;48.748;2.222;2023-04-01T17:27:06;2.95;;;1.17;;
29344;SDS011;16339;48.748;2.222;2023-04-01T17:29:56;5.38;;;1.38;;
29344;SDS011;16339;48.748;2.222;2023-04-01T17:32:39;10.38;;;1.50;;
29344;SDS011;16339;48.748;2.222;2023-04-01T17:35:19;4.38;;;1.58;;
29344;SDS011;16339;48.748;2.222;2023-04-01T17:37:56;8.63;;;1.73;;
29344;SDS011;16339;48.748;2.222;2023-04-01T17:40:36;9.13;;;2.00;;